Overview Statistics Trail Chart Weather Telemetry Raw packets
 

This is the latest recevied weather packets stored in our database for station/object WX4SGA. If no packets are shown the sender has not sent any weather packets the latest 10 day(s).

<< 100 101 102 103 104 105 106 >>
Time Temp. Humidity Pressure Rain* Wind** Luminosity Snow
1787863750 23.33° C 96% 1015.6 hPa 0 mm - 39 W/m² -
1787863449 23.33° C 96% 1015.6 hPa 0 mm - 44 W/m² -
1787863146 23.33° C 96% 1015.9 hPa 7.11 mm - 36 W/m² -
1787862842 24.44° C 95% 1015.6 hPa 31.75 mm - 22 W/m² -
1787862540 25° C 97% 1015.6 hPa 39.12 mm - 17 W/m² -
1787862235 26.67° C 92% 1015.2 hPa 1.78 mm - 8 W/m² -
1787861931 28.33° C 84% 1015.2 hPa 0 mm - 6 W/m² -
1787861625 28.89° C 80% 1014.9 hPa 0 mm - 13 W/m² -
1787861323 29.44° C 79% 1015.2 hPa 0 mm - 35 W/m² -
1787861018 30° C 75% 1014.9 hPa 0 mm - 76 W/m² -
1787860717 30° C 75% 1014.6 hPa 0 mm - 110 W/m² -
1787860413 30° C 75% 1014.2 hPa 0 mm - 155 W/m² -
1787860113 30° C 76% 1014.2 hPa 0 mm - 221 W/m² -
1787859808 30° C 75% 1014.6 hPa 0 mm - 256 W/m² -
1787859508 30.56° C 73% 1014.6 hPa 0 mm - 208 W/m² -
1787859202 31.11° C 72% 1014.6 hPa 0 mm - 278 W/m² -
1787858899 31.11° C 72% 1014.9 hPa 0 mm - 606 W/m² -
1787858594 31.67° C 71% 1014.9 hPa 0 mm - 458 W/m² -
1787858289 32.78° C 66% 1014.9 hPa 0 mm - 730 W/m² -
1787857984 31.67° C 68% 1014.9 hPa 0 mm - 783 W/m² -
1787857679 32.22° C 69% 1014.9 hPa 0 mm - 693 W/m² -
1787857375 31.67° C 70% 1014.9 hPa 0 mm - 920 W/m² -
1787857072 31.11° C 69% 1014.9 hPa 0 mm - 868 W/m² -
1787856767 30° C 73% 1014.9 hPa 0 mm - 603 W/m² -
1787856461 30° C 74% 1014.9 hPa 0 mm - 506 W/m² -

* Rain latest hour (hover to see other rain measurements)
** Current wind speed in m/s (hover to see current wind gust speed)